createdAt,value
2019-06-07T06:00:28.426Z,14.74
2019-06-07T06:01:53.392Z,14.88
2019-06-07T06:02:29.381Z,14.88
2019-06-07T06:03:28.390Z,14.78
2019-06-07T06:04:28.532Z,14.78
2019-06-07T06:05:34.367Z,14.86
2019-06-07T06:06:29.338Z,14.88
2019-06-07T06:07:28.397Z,15.01
2019-06-07T06:08:28.319Z,14.99
2019-06-07T06:09:28.305Z,14.95
2019-06-07T06:10:28.298Z,14.98
2019-06-07T06:11:43.098Z,14.94
2019-06-07T06:12:35.318Z,14.86
2019-06-07T06:13:29.260Z,14.86
2019-06-07T06:14:28.257Z,14.69
2019-06-07T06:15:42.474Z,14.74
2019-06-07T06:16:29.271Z,14.93
2019-06-07T06:17:28.239Z,14.81
2019-06-07T06:18:28.254Z,14.84
2019-06-07T06:19:28.196Z,14.75
2019-06-07T06:20:33.221Z,14.91
2019-06-07T06:21:29.233Z,14.72
2019-06-07T06:22:28.175Z,14.72
2019-06-07T06:23:28.157Z,14.74
2019-06-07T06:24:28.143Z,14.74
2019-06-07T06:25:32.611Z,14.65
2019-06-07T06:26:29.150Z,14.69
2019-06-07T06:28:03.379Z,14.60
2019-06-07T06:28:29.100Z,14.65
2019-06-07T06:29:28.113Z,14.64
2019-06-07T06:30:28.084Z,14.62
2019-06-07T06:31:28.167Z,14.62
2019-06-07T06:32:41.657Z,14.71
2019-06-07T06:33:34.522Z,14.91
2019-06-07T06:34:29.046Z,14.86
2019-06-07T06:35:28.031Z,14.87
2019-06-07T06:36:28.075Z,14.95
2019-06-07T06:37:28.014Z,14.93
2019-06-07T06:38:28.022Z,14.98
2019-06-07T06:39:27.985Z,15.03
2019-06-07T06:40:27.975Z,14.94
2019-06-07T06:41:27.984Z,14.94
2019-06-07T06:42:27.948Z,15.13
2019-06-07T06:43:27.980Z,15.06
2019-06-07T06:44:27.928Z,15.11
2019-06-07T06:45:27.916Z,15.20
2019-06-07T06:46:38.715Z,15.27
2019-06-07T06:47:28.899Z,15.35
2019-06-07T06:48:27.924Z,15.28
2019-06-07T06:49:27.879Z,15.38
2019-06-07T06:50:27.864Z,15.36
2019-06-07T06:51:27.854Z,15.46
2019-06-07T06:52:27.843Z,15.54
2019-06-07T06:53:27.854Z,15.49
2019-06-07T06:54:40.248Z,15.51
2019-06-07T06:55:28.856Z,15.48
2019-06-07T06:56:27.821Z,15.52
2019-06-07T06:57:27.967Z,15.48
2019-06-07T06:58:27.800Z,15.51
2019-06-07T06:59:38.802Z,15.60
2019-06-07T07:00:43.489Z,15.63
2019-06-07T07:01:28.749Z,15.59
2019-06-07T07:02:27.778Z,15.68
2019-06-07T07:04:03.991Z,15.67
2019-06-07T07:04:28.722Z,15.70
2019-06-07T07:05:27.711Z,15.67
2019-06-07T07:06:27.699Z,15.68
2019-06-07T07:07:27.744Z,15.70
2019-06-07T07:08:27.700Z,15.52
2019-06-07T07:09:27.666Z,15.66
2019-06-07T07:10:27.671Z,15.63
2019-06-07T07:11:27.651Z,15.70
2019-06-07T07:12:27.631Z,15.75
2019-06-07T07:13:27.682Z,15.81
2019-06-07T07:14:27.701Z,15.93
2019-06-07T07:15:27.601Z,15.84
2019-06-07T07:16:27.590Z,16.00
2019-06-07T07:17:47.914Z,16.04
2019-06-07T07:18:28.572Z,16.06
2019-06-07T07:19:27.564Z,16.01
2019-06-07T07:20:27.588Z,16.03
2019-06-07T07:21:27.541Z,16.20
2019-06-07T07:22:27.527Z,16.14
2019-06-07T07:23:27.523Z,16.15
2019-06-07T07:24:29.125Z,16.22
2019-06-07T07:25:27.543Z,16.35
2019-06-07T07:26:27.485Z,16.38
2019-06-07T07:27:27.475Z,16.45
2019-06-07T07:28:27.468Z,16.63
2019-06-07T07:29:27.464Z,16.60
2019-06-07T07:30:36.792Z,16.71
2019-06-07T07:31:28.429Z,16.70
2019-06-07T07:32:27.426Z,16.80
2019-06-07T07:34:19.958Z,16.83
2019-06-07T07:34:35.483Z,16.93
2019-06-07T07:35:28.437Z,16.83
2019-06-07T07:36:38.621Z,16.90
2019-06-07T07:37:28.468Z,16.77
2019-06-07T07:38:27.370Z,16.73
2019-06-07T07:39:27.352Z,16.83
2019-06-07T07:41:28.358Z,16.77
2019-06-07T07:42:27.311Z,16.70
2019-06-07T07:43:27.323Z,16.73
2019-06-07T07:44:27.314Z,16.70
2019-06-07T07:45:27.276Z,16.73
2019-06-07T07:46:29.746Z,16.75
2019-06-07T07:47:27.262Z,16.71
2019-06-07T07:48:27.259Z,16.78
2019-06-07T07:49:27.234Z,16.83
2019-06-07T07:50:27.305Z,16.90
2019-06-07T07:51:27.243Z,16.90
2019-06-07T07:52:27.260Z,17.03
2019-06-07T07:53:45.360Z,17.13
2019-06-07T07:54:28.186Z,17.13
2019-06-07T07:55:27.327Z,17.13
2019-06-07T07:56:27.160Z,17.20
2019-06-07T07:57:27.176Z,17.23
2019-06-07T07:58:27.184Z,17.20
2019-06-07T07:59:41.156Z,17.15
2019-06-07T08:01:28.133Z,17.28
2019-06-07T08:02:27.097Z,17.29
2019-06-07T08:03:27.102Z,17.23
2019-06-07T08:05:12.395Z,17.30
2019-06-07T08:05:41.955Z,17.36
2019-06-07T08:06:28.049Z,17.47
2019-06-07T08:07:27.231Z,17.44
2019-06-07T08:08:27.043Z,17.66
2019-06-07T08:09:27.051Z,17.55
2019-06-07T08:10:27.029Z,17.57
2019-06-07T08:11:26.995Z,17.53
2019-06-07T08:12:27.025Z,17.47
2019-06-07T08:13:27.888Z,17.41
2019-06-07T08:14:26.961Z,17.50
2019-06-07T08:15:26.967Z,17.59
2019-06-07T08:16:26.935Z,17.73
2019-06-07T08:17:26.957Z,17.70
2019-06-07T08:18:26.935Z,17.78
2019-06-07T08:19:26.908Z,17.79
2019-06-07T08:20:26.892Z,17.87
2019-06-07T08:21:27.397Z,17.79
2019-06-07T08:22:26.891Z,17.87
2019-06-07T08:23:26.882Z,17.84
2019-06-07T08:24:26.868Z,17.82
2019-06-07T08:25:26.840Z,17.74
2019-06-07T08:26:26.853Z,17.85
2019-06-07T08:27:27.117Z,17.94
2019-06-07T08:28:26.807Z,17.97
2019-06-07T08:29:43.830Z,18.00
2019-06-07T08:31:27.800Z,17.94
2019-06-07T08:32:26.765Z,17.87
2019-06-07T08:33:27.195Z,17.81
2019-06-07T08:34:26.798Z,17.78
2019-06-07T08:36:41.351Z,17.74
2019-06-07T08:38:13.467Z,17.85
2019-06-07T08:38:46.464Z,17.87
2019-06-07T08:39:27.700Z,17.81
2019-06-07T08:40:26.678Z,17.94
2019-06-07T08:41:26.684Z,17.94
2019-06-07T08:42:36.836Z,17.94
2019-06-07T08:43:27.672Z,18.09
2019-06-07T08:44:26.637Z,18.00
2019-06-07T08:45:26.623Z,18.00
2019-06-07T08:46:26.604Z,17.95
2019-06-07T08:47:26.595Z,17.91
2019-06-07T08:48:28.338Z,18.04
2019-06-07T08:49:26.605Z,17.95
2019-06-07T08:50:26.590Z,17.97
2019-06-07T08:51:26.550Z,17.99
2019-06-07T08:52:26.537Z,18.00
2019-06-07T08:53:26.529Z,18.12
2019-06-07T08:54:26.545Z,18.12
2019-06-07T08:55:26.569Z,18.12
2019-06-07T08:56:26.509Z,18.24
2019-06-07T08:57:26.482Z,18.21
2019-06-07T08:58:26.474Z,18.27
2019-06-07T08:59:26.474Z,18.36
2019-06-07T09:00:45.450Z,18.37
2019-06-07T09:01:27.437Z,18.42
2019-06-07T09:02:26.434Z,18.49
2019-06-07T09:03:26.422Z,18.50
2019-06-07T09:04:26.402Z,18.58
2019-06-07T09:05:26.416Z,18.57
2019-06-07T09:07:02.654Z,18.68
2019-06-07T09:07:27.373Z,18.73
2019-06-07T09:08:30.558Z,18.82
2019-06-07T09:09:26.360Z,18.84
2019-06-07T09:10:26.390Z,18.90
2019-06-07T09:11:26.328Z,18.95
2019-06-07T09:12:26.321Z,19.01
2019-06-07T09:13:26.333Z,19.10
2019-06-07T09:14:26.359Z,19.13
2019-06-07T09:15:26.293Z,19.20
2019-06-07T09:16:26.282Z,19.23
2019-06-07T09:17:26.274Z,19.25
2019-06-07T09:18:44.417Z,19.25
2019-06-07T09:19:27.243Z,19.23
2019-06-07T09:20:35.770Z,19.20
2019-06-07T09:21:27.235Z,19.29
2019-06-07T09:22:26.234Z,19.29
2019-06-07T09:23:26.233Z,19.29
2019-06-07T09:24:26.189Z,19.32
2019-06-07T09:25:26.178Z,19.38
2019-06-07T09:26:26.168Z,19.32
2019-06-07T09:27:26.246Z,19.35
2019-06-07T09:28:26.189Z,19.40
2019-06-07T09:29:26.152Z,19.50
2019-06-07T09:30:26.121Z,19.51
2019-06-07T09:31:48.805Z,19.48
2019-06-07T09:32:27.114Z,19.50
2019-06-07T09:33:26.119Z,19.48
2019-06-07T09:34:26.116Z,19.47
2019-06-07T09:35:26.071Z,19.46
2019-06-07T09:36:26.057Z,19.51
2019-06-07T09:38:27.243Z,19.57
2019-06-07T09:39:26.054Z,19.68
2019-06-07T09:40:27.914Z,19.70
2019-06-07T09:41:46.268Z,19.72
2019-06-07T09:42:26.992Z,19.80
2019-06-07T09:44:27.046Z,19.75
2019-06-07T09:45:25.969Z,19.83
2019-06-07T09:46:25.948Z,19.79
2019-06-07T09:47:32.552Z,19.83
2019-06-07T09:49:09.284Z,19.87
2019-06-07T09:49:32.732Z,19.94
2019-06-07T09:50:27.015Z,19.97
2019-06-07T09:51:25.914Z,19.91
2019-06-07T09:52:25.886Z,20.15
2019-06-07T09:53:25.873Z,20.24
2019-06-07T09:55:04.119Z,20.21
2019-06-07T09:55:26.903Z,20.31
2019-06-07T09:56:25.915Z,20.43
2019-06-07T09:57:25.832Z,20.46
2019-06-07T09:59:26.810Z,20.41
2019-06-07T10:00:42.829Z,20.47
2019-06-07T10:01:26.816Z,20.39
2019-06-07T10:02:25.825Z,20.51
2019-06-07T10:03:25.764Z,20.46
2019-06-07T10:04:31.266Z,20.47
2019-06-07T10:05:26.773Z,20.49
2019-06-07T10:06:25.760Z,20.43
2019-06-07T10:07:31.947Z,20.46
2019-06-07T10:09:42.449Z,20.54
2019-06-07T10:10:09.189Z,20.61
2019-06-07T10:11:25.681Z,20.80
2019-06-07T10:12:25.702Z,20.86
2019-06-07T10:13:25.659Z,20.91
2019-06-07T10:14:25.650Z,20.99
2019-06-07T10:15:25.635Z,21.06
2019-06-07T10:16:25.625Z,21.14
2019-06-07T10:17:25.657Z,21.11
2019-06-07T10:18:25.603Z,21.19
2019-06-07T10:19:25.596Z,21.30
2019-06-07T10:20:25.601Z,21.41
2019-06-07T10:21:25.603Z,21.38
2019-06-07T10:22:25.562Z,21.45
2019-06-07T10:23:25.565Z,21.50
2019-06-07T10:24:25.540Z,21.54
2019-06-07T10:25:25.527Z,21.53
2019-06-07T10:26:25.545Z,21.63
2019-06-07T10:27:25.508Z,21.53
2019-06-07T10:28:25.497Z,21.53
2019-06-07T10:29:25.523Z,21.57
2019-06-07T10:30:25.590Z,21.53
2019-06-07T10:31:25.498Z,21.51
2019-06-07T10:32:25.460Z,21.54
2019-06-07T10:33:25.454Z,21.66
2019-06-07T10:34:25.468Z,21.67
2019-06-07T10:35:25.424Z,21.74
2019-06-07T10:36:25.409Z,21.81
2019-06-07T10:37:25.410Z,21.98
2019-06-07T10:38:25.420Z,21.95
2019-06-07T10:39:25.401Z,21.97
2019-06-07T10:40:25.369Z,21.94
2019-06-07T10:41:25.356Z,21.99
2019-06-07T10:42:25.362Z,21.99
2019-06-07T10:43:25.381Z,21.92
2019-06-07T10:44:25.367Z,22.02
2019-06-07T10:45:25.332Z,22.06
2019-06-07T10:46:25.307Z,22.04
2019-06-07T10:47:25.328Z,22.07
2019-06-07T10:48:25.294Z,22.06
2019-06-07T10:49:25.286Z,21.98
2019-06-07T10:50:25.261Z,21.94
2019-06-07T10:51:25.255Z,22.09
2019-06-07T10:52:25.279Z,22.04
2019-06-07T10:53:25.234Z,22.14
2019-06-07T10:54:30.290Z,22.27
2019-06-07T10:55:26.226Z,22.37
2019-06-07T10:56:25.205Z,22.35
2019-06-07T10:57:25.222Z,22.50
2019-06-07T10:58:25.174Z,22.56
2019-06-07T10:59:25.184Z,22.54
2019-06-07T11:00:25.152Z,22.50
2019-06-07T11:01:25.154Z,22.64
2019-06-07T11:02:25.142Z,22.68
2019-06-07T11:03:25.131Z,22.65
2019-06-07T11:04:25.141Z,22.64
2019-06-07T11:05:25.107Z,22.67
2019-06-07T11:06:25.098Z,22.62
2019-06-07T11:07:25.085Z,22.57
2019-06-07T11:08:25.082Z,22.52
2019-06-07T11:09:25.098Z,22.49
2019-06-07T11:10:25.052Z,22.50
2019-06-07T11:11:25.039Z,22.41
2019-06-07T11:12:25.058Z,22.39
2019-06-07T11:13:25.014Z,22.43
2019-06-07T11:14:25.031Z,22.53
2019-06-07T11:15:24.992Z,22.49
2019-06-07T11:16:25.027Z,22.67
2019-06-07T11:17:25.030Z,22.77
2019-06-07T11:18:24.970Z,22.72
2019-06-07T11:19:24.977Z,22.82
2019-06-07T11:20:24.977Z,22.90
2019-06-07T11:21:24.937Z,23.01
2019-06-07T11:22:24.923Z,22.90
2019-06-07T11:23:24.925Z,22.89
2019-06-07T11:24:24.966Z,22.96
2019-06-07T11:25:25.024Z,22.87
2019-06-07T11:26:24.928Z,22.89
2019-06-07T11:27:24.867Z,22.90
2019-06-07T11:28:24.861Z,22.94
2019-06-07T11:29:24.844Z,22.99
2019-06-07T11:30:25.156Z,22.99
2019-06-07T11:31:24.835Z,23.01
2019-06-07T11:32:24.817Z,22.96
2019-06-07T11:33:24.837Z,22.97
2019-06-07T11:34:24.801Z,22.90
2019-06-07T11:35:24.786Z,22.90
2019-06-07T11:36:24.775Z,22.89
2019-06-07T11:37:24.814Z,22.96
2019-06-07T11:38:24.749Z,22.89
2019-06-07T11:39:24.739Z,22.92
2019-06-07T11:40:33.974Z,22.94
2019-06-07T11:41:25.717Z,22.94
2019-06-07T11:42:25.135Z,22.93
2019-06-07T11:43:24.737Z,22.92
2019-06-07T11:44:25.617Z,22.96
2019-06-07T11:45:24.725Z,23.09
2019-06-07T11:46:24.702Z,23.15
2019-06-07T11:47:24.652Z,23.14
2019-06-07T11:48:24.641Z,23.22
2019-06-07T11:49:24.672Z,23.31
2019-06-07T11:50:24.626Z,23.52
2019-06-07T11:51:24.615Z,23.64
2019-06-07T11:52:25.136Z,23.75
2019-06-07T11:53:24.589Z,23.64
2019-06-07T11:54:24.577Z,23.68
2019-06-07T11:55:24.566Z,23.57
2019-06-07T11:56:24.581Z,23.49
2019-06-07T11:57:24.602Z,23.39
2019-06-07T11:58:24.539Z,23.40
2019-06-07T11:59:24.526Z,23.39
2019-06-07T12:00:24.512Z,23.47
2019-06-07T12:01:24.549Z,23.50
2019-06-07T12:02:24.503Z,23.50
2019-06-07T12:03:24.475Z,23.45
2019-06-07T12:04:34.508Z,23.43
2019-06-07T12:05:25.461Z,23.47
2019-06-07T12:06:24.468Z,23.40
2019-06-07T12:07:24.438Z,23.23
2019-06-07T12:08:24.432Z,23.27
2019-06-07T12:09:27.962Z,23.24
2019-06-07T12:10:24.405Z,23.20
2019-06-07T12:11:24.404Z,23.11
2019-06-07T12:12:24.416Z,23.12
2019-06-07T12:13:26.962Z,23.12
2019-06-07T12:14:24.364Z,23.08
2019-06-07T12:15:24.389Z,23.08
2019-06-07T12:16:24.346Z,23.14
2019-06-07T12:17:24.404Z,23.08
2019-06-07T12:18:24.355Z,23.11
2019-06-07T12:19:24.314Z,23.19
2019-06-07T12:20:24.305Z,23.17
2019-06-07T12:21:24.354Z,23.07
2019-06-07T12:22:24.326Z,22.96
2019-06-07T12:23:24.310Z,22.93
2019-06-07T12:24:26.132Z,22.92
2019-06-07T12:25:25.139Z,22.92
2019-06-07T12:26:24.262Z,22.93
2019-06-07T12:27:24.253Z,23.09
2019-06-07T12:28:24.217Z,23.04
2019-06-07T12:29:24.202Z,23.05
2019-06-07T12:30:27.713Z,23.22
2019-06-07T12:31:24.204Z,23.15
2019-06-07T12:32:24.186Z,23.22
2019-06-07T12:33:25.064Z,23.26
2019-06-07T12:34:24.219Z,23.32
2019-06-07T12:35:24.139Z,23.43
2019-06-07T12:36:24.203Z,23.38
2019-06-07T12:37:42.065Z,23.35
2019-06-07T12:38:25.112Z,23.35
2019-06-07T12:39:24.102Z,23.42
2019-06-07T12:40:30.119Z,23.29
2019-06-07T12:41:25.141Z,23.40
2019-06-07T12:42:24.066Z,23.42
2019-06-07T12:43:24.054Z,23.39
2019-06-07T12:44:24.114Z,23.39
2019-06-07T12:45:43.976Z,23.42
2019-06-07T12:46:28.479Z,23.31
2019-06-07T12:47:24.018Z,23.19
2019-06-07T12:48:26.083Z,23.01
2019-06-07T12:49:24.023Z,22.89
2019-06-07T12:50:41.889Z,22.84
2019-06-07T12:51:24.971Z,22.84
2019-06-07T12:52:24.663Z,22.84
2019-06-07T12:53:27.610Z,22.84
2019-06-07T12:54:23.959Z,22.80
2019-06-07T12:55:24.854Z,22.87
2019-06-07T12:56:24.305Z,22.94
2019-06-07T12:57:24.219Z,22.87
2019-06-07T12:58:32.598Z,22.92
2019-06-07T12:59:24.905Z,22.96
2019-06-07T13:00:24.499Z,22.94
2019-06-07T13:01:24.841Z,22.99
2019-06-07T13:02:25.437Z,22.92
2019-06-07T13:03:24.536Z,22.94
2019-06-07T13:04:24.997Z,22.92
2019-06-07T13:05:23.976Z,22.96
2019-06-07T13:06:23.808Z,22.93
2019-06-07T13:07:24.257Z,22.96
2019-06-07T13:08:23.981Z,22.89
2019-06-07T13:09:24.038Z,22.90
2019-06-07T13:10:24.105Z,22.92
2019-06-07T13:11:28.266Z,23.04
2019-06-07T13:12:24.741Z,23.08
2019-06-07T13:13:24.585Z,23.09
2019-06-07T13:14:24.140Z,23.24
2019-06-07T13:15:25.810Z,23.35
2019-06-07T13:16:24.241Z,23.31
2019-06-07T13:17:24.187Z,23.40
2019-06-07T13:18:25.171Z,23.43
2019-06-07T13:19:24.435Z,23.53
2019-06-07T13:20:24.678Z,23.53
2019-06-07T13:21:24.638Z,23.58
2019-06-07T13:22:24.423Z,23.50
2019-06-07T13:23:24.398Z,23.58
2019-06-07T13:24:25.215Z,23.50
2019-06-07T13:25:30.114Z,23.49
2019-06-07T13:26:25.359Z,23.55
2019-06-07T13:27:24.519Z,23.58
2019-06-07T13:28:24.786Z,23.60
2019-06-07T13:29:25.109Z,23.57
2019-06-07T13:30:25.443Z,23.53
2019-06-07T13:31:23.535Z,23.55
2019-06-07T13:32:23.778Z,23.61
2019-06-07T13:33:24.204Z,23.57
2019-06-07T13:34:24.289Z,23.60
2019-06-07T13:35:23.829Z,23.58
2019-06-07T13:36:24.417Z,23.65
2019-06-07T13:37:23.525Z,23.61
2019-06-07T13:38:24.323Z,23.61
2019-06-07T13:39:27.528Z,23.57
2019-06-07T13:40:25.120Z,23.60
2019-06-07T13:41:36.374Z,23.53
2019-06-07T13:42:24.799Z,23.57
2019-06-07T13:43:23.516Z,23.60
2019-06-07T13:44:24.963Z,23.58
2019-06-07T13:45:24.298Z,23.53
2019-06-07T13:46:23.394Z,23.50
2019-06-07T13:47:23.394Z,23.57
2019-06-07T13:48:23.469Z,23.49
2019-06-07T13:49:23.709Z,23.42
2019-06-07T13:50:24.081Z,23.42
2019-06-07T13:51:25.184Z,23.42
2019-06-07T13:52:23.315Z,23.42
2019-06-07T13:53:24.935Z,23.46
2019-06-07T13:54:24.718Z,23.50
2019-06-07T13:55:24.009Z,23.58
2019-06-07T13:56:24.010Z,23.64
2019-06-07T13:57:24.356Z,23.72
2019-06-07T13:58:24.225Z,23.86
2019-06-07T13:59:24.530Z,23.86
2019-06-07T14:00:24.784Z,23.89
2019-06-07T14:01:24.510Z,24.08
2019-06-07T14:02:23.989Z,24.13
2019-06-07T14:03:27.215Z,24.12
2019-06-07T14:04:26.925Z,24.22
2019-06-07T14:05:23.205Z,24.22
2019-06-07T14:06:24.949Z,24.29
2019-06-07T14:07:26.352Z,24.27
2019-06-07T14:08:23.337Z,24.22
2019-06-07T14:09:23.320Z,24.20
2019-06-07T14:10:23.654Z,24.16
2019-06-07T14:11:23.643Z,24.10
2019-06-07T14:12:24.144Z,24.00
2019-06-07T14:13:23.649Z,23.87
2019-06-07T14:14:25.035Z,23.85
2019-06-07T14:15:24.364Z,23.87
2019-06-07T14:16:24.297Z,24.00
2019-06-07T14:17:23.304Z,23.94
2019-06-07T14:18:24.321Z,24.07
2019-06-07T14:19:24.351Z,24.10
2019-06-07T14:20:26.775Z,24.12
2019-06-07T14:21:24.617Z,24.23
2019-06-07T14:22:23.003Z,24.32
2019-06-07T14:23:40.154Z,24.35
2019-06-07T14:24:25.137Z,24.29
2019-06-07T14:25:23.093Z,24.32
2019-06-07T14:26:23.251Z,24.34
2019-06-07T14:27:23.404Z,24.35
2019-06-07T14:28:26.470Z,24.34
2019-06-07T14:29:23.917Z,24.37
2019-06-07T14:30:23.943Z,24.31
2019-06-07T14:31:24.578Z,24.37
2019-06-07T14:32:24.835Z,24.31
2019-06-07T14:33:25.206Z,24.31
2019-06-07T14:34:24.229Z,24.32
2019-06-07T14:35:24.455Z,24.22
2019-06-07T14:36:22.850Z,24.23
2019-06-07T14:37:22.918Z,24.14
2019-06-07T14:38:23.150Z,24.13
2019-06-07T14:39:23.081Z,24.13
2019-06-07T14:40:23.203Z,24.14
2019-06-07T14:41:23.227Z,24.12
2019-06-07T14:42:23.404Z,24.08
2019-06-07T14:43:23.175Z,24.04
2019-06-07T14:44:23.557Z,23.94
2019-06-07T14:45:23.578Z,23.86
2019-06-07T14:46:23.538Z,23.90
2019-06-07T14:47:23.792Z,23.87
2019-06-07T14:48:23.831Z,23.85
2019-06-07T14:49:24.152Z,23.85
2019-06-07T14:50:24.090Z,23.92
2019-06-07T14:51:24.119Z,23.86
2019-06-07T14:52:22.676Z,23.79
2019-06-07T14:53:22.683Z,23.80
2019-06-07T14:54:22.703Z,23.76
2019-06-07T14:55:22.685Z,23.68
2019-06-07T14:56:22.660Z,23.68
2019-06-07T14:57:22.673Z,23.76
2019-06-07T14:58:22.642Z,23.80
2019-06-07T14:59:22.634Z,23.82
2019-06-07T15:00:22.593Z,23.82
2019-06-07T15:01:22.608Z,23.85
2019-06-07T15:02:22.644Z,23.83
2019-06-07T15:03:22.638Z,23.89
2019-06-07T15:04:22.547Z,23.86
2019-06-07T15:05:22.573Z,23.87
2019-06-07T15:06:22.554Z,23.94
2019-06-07T15:07:22.521Z,23.83
2019-06-07T15:08:22.509Z,23.83
2019-06-07T15:09:22.493Z,23.80
2019-06-07T15:10:22.482Z,23.77
2019-06-07T15:11:22.631Z,23.72
2019-06-07T15:12:25.376Z,23.85
2019-06-07T15:13:22.443Z,23.83
2019-06-07T15:14:22.503Z,23.76
2019-06-07T15:15:22.482Z,23.76
2019-06-07T15:16:22.446Z,23.68
2019-06-07T15:17:22.457Z,23.72
2019-06-07T15:18:22.404Z,23.65
2019-06-07T15:19:24.222Z,23.62
2019-06-07T15:20:22.484Z,23.70
2019-06-07T15:21:22.610Z,23.72
2019-06-07T15:22:22.459Z,23.68
2019-06-07T15:23:22.640Z,23.67
2019-06-07T15:24:22.337Z,23.61
2019-06-07T15:25:22.625Z,23.58
2019-06-07T15:26:22.314Z,23.57
2019-06-07T15:27:22.443Z,23.52
2019-06-07T15:28:22.334Z,23.49
2019-06-07T15:29:23.099Z,23.35
2019-06-07T15:30:22.269Z,23.34
2019-06-07T15:31:22.261Z,23.27
2019-06-07T15:32:22.276Z,23.26
2019-06-07T15:33:22.284Z,23.09
2019-06-07T15:34:22.252Z,23.07
2019-06-07T15:35:22.221Z,22.96
2019-06-07T15:36:22.230Z,22.74
2019-06-07T15:37:22.215Z,22.54
2019-06-07T15:38:22.224Z,22.43
2019-06-07T15:39:22.191Z,22.32
2019-06-07T15:40:24.374Z,22.17
2019-06-07T15:41:22.156Z,21.95
2019-06-07T15:42:22.135Z,21.72
2019-06-07T15:43:23.065Z,21.63
2019-06-07T15:44:22.122Z,21.59
2019-06-07T15:45:22.148Z,21.42
2019-06-07T15:46:22.118Z,21.36
2019-06-07T15:47:22.120Z,21.27
2019-06-07T15:48:22.083Z,21.34
2019-06-07T15:49:22.088Z,21.19
2019-06-07T15:50:23.628Z,21.11
2019-06-07T15:51:22.055Z,21.16
2019-06-07T15:52:22.121Z,20.99
2019-06-07T15:53:22.111Z,20.99
2019-06-07T15:54:22.011Z,20.96
2019-06-07T15:55:22.007Z,20.90
2019-06-07T15:56:22.026Z,20.93
2019-06-07T15:57:21.973Z,20.96
2019-06-07T15:58:21.966Z,20.86
2019-06-07T15:59:21.958Z,20.83
2019-06-07T16:00:21.950Z,20.76
2019-06-07T16:01:21.970Z,20.76
2019-06-07T16:02:21.985Z,20.77
2019-06-07T16:03:21.930Z,20.68
2019-06-07T16:04:22.035Z,20.79
2019-06-07T16:05:21.946Z,20.79
2019-06-07T16:06:21.937Z,20.84
2019-06-07T16:07:21.898Z,20.84
2019-06-07T16:08:21.862Z,20.95
2019-06-07T16:09:21.848Z,21.06
2019-06-07T16:10:21.843Z,21.05
2019-06-07T16:11:21.824Z,21.02
2019-06-07T16:12:22.134Z,21.04
2019-06-07T16:13:22.011Z,20.91
2019-06-07T16:14:22.130Z,20.76
2019-06-07T16:15:21.792Z,20.71
2019-06-07T16:16:21.773Z,20.58
2019-06-07T16:17:21.779Z,20.42
2019-06-07T16:18:21.823Z,20.30
2019-06-07T16:19:21.743Z,20.08
2019-06-07T16:20:21.731Z,19.91
2019-06-07T16:21:21.727Z,19.88
2019-06-07T16:22:21.725Z,19.83
2019-06-07T16:23:21.735Z,19.73
2019-06-07T16:24:21.682Z,19.69
2019-06-07T16:25:21.673Z,19.51
2019-06-07T16:26:21.684Z,19.46
2019-06-07T16:27:22.156Z,19.33
2019-06-07T16:28:21.737Z,19.23
2019-06-07T16:29:21.648Z,19.23
2019-06-07T16:30:21.700Z,19.21
2019-06-07T16:31:21.608Z,19.20
2019-06-07T16:32:21.603Z,19.20
2019-06-07T16:33:21.634Z,19.23
2019-06-07T16:34:21.690Z,19.21
2019-06-07T16:35:21.703Z,19.14
2019-06-07T16:36:21.555Z,19.24
2019-06-07T16:37:21.543Z,19.14
2019-06-07T16:38:21.537Z,19.18
2019-06-07T16:39:21.569Z,19.23
2019-06-07T16:40:23.209Z,19.23
2019-06-07T16:41:21.508Z,19.20
2019-06-07T16:42:21.577Z,19.35
2019-06-07T16:43:22.229Z,19.32
2019-06-07T16:44:21.508Z,19.28
2019-06-07T16:45:21.487Z,19.32
2019-06-07T16:46:21.469Z,19.40
2019-06-07T16:47:24.636Z,19.40
2019-06-07T16:48:21.508Z,19.43
2019-06-07T16:49:21.715Z,19.47
2019-06-07T16:50:21.478Z,19.50
2019-06-07T16:51:21.404Z,19.48
2019-06-07T16:52:21.407Z,19.38
2019-06-07T16:53:22.210Z,19.35
2019-06-07T16:54:21.630Z,19.28
2019-06-07T16:55:21.475Z,19.11
2019-06-07T16:56:21.697Z,18.98
2019-06-07T16:57:21.359Z,18.92
2019-06-07T16:58:21.322Z,18.74
2019-06-07T16:59:21.354Z,18.70
2019-06-07T17:00:21.295Z,18.55
2019-06-07T17:01:21.288Z,18.59
2019-06-07T17:02:21.277Z,18.52
2019-06-07T17:03:21.286Z,18.59
2019-06-07T17:04:21.299Z,18.55
2019-06-07T17:05:21.247Z,18.49
2019-06-07T17:06:21.306Z,18.44
2019-06-07T17:07:21.236Z,18.37
2019-06-07T17:08:21.243Z,18.19
2019-06-07T17:09:21.455Z,18.13
2019-06-07T17:10:21.361Z,18.04
2019-06-07T17:11:22.156Z,18.10
2019-06-07T17:12:21.214Z,18.07
2019-06-07T17:13:32.962Z,18.15
2019-06-07T17:14:22.312Z,17.95
2019-06-07T17:15:21.136Z,18.07
2019-06-07T17:16:22.106Z,18.13
2019-06-07T17:17:22.135Z,18.13
2019-06-07T17:18:22.243Z,18.07
2019-06-07T17:19:21.098Z,18.09
2019-06-07T17:20:21.093Z,18.17
2019-06-07T17:21:21.207Z,18.10
2019-06-07T17:22:21.126Z,18.13
2019-06-07T17:23:21.320Z,18.19
2019-06-07T17:24:21.326Z,18.17
2019-06-07T17:25:21.030Z,18.07
2019-06-07T17:26:21.021Z,18.09
2019-06-07T17:27:21.037Z,17.99
2019-06-07T17:28:22.828Z,17.95
2019-06-07T17:29:21.132Z,17.97
2019-06-07T17:30:21.003Z,18.00
2019-06-07T17:31:21.006Z,17.91
2019-06-07T17:32:20.993Z,17.92
2019-06-07T17:33:20.949Z,17.84
2019-06-07T17:34:20.943Z,17.82
2019-06-07T17:35:20.927Z,17.76
2019-06-07T17:36:20.964Z,17.78
2019-06-07T17:37:22.639Z,17.76
2019-06-07T17:38:21.047Z,17.81
2019-06-07T17:39:20.882Z,17.76
2019-06-07T17:40:20.864Z,17.81
2019-06-07T17:41:20.852Z,17.79
2019-06-07T17:42:21.156Z,17.78
2019-06-07T17:43:22.061Z,17.81
2019-06-07T17:44:20.880Z,17.85
2019-06-07T17:45:21.240Z,17.85
2019-06-07T17:46:20.827Z,17.81
2019-06-07T17:47:20.912Z,17.79
2019-06-07T17:48:23.869Z,17.76
2019-06-07T17:49:20.772Z,17.88
2019-06-07T17:50:20.804Z,17.84
2019-06-07T17:51:20.743Z,17.79
2019-06-07T17:52:20.758Z,17.76
2019-06-07T17:53:20.896Z,17.82
2019-06-07T17:54:20.710Z,17.74
2019-06-07T17:55:20.701Z,17.81
2019-06-07T17:56:20.721Z,17.82
2019-06-07T17:57:20.694Z,17.79
2019-06-07T17:58:20.665Z,17.81
2019-06-07T17:59:20.656Z,17.76
2019-06-07T18:00:29.240Z,17.73
2019-06-07T18:01:21.630Z,17.76
2019-06-07T18:02:20.623Z,17.79
2019-06-07T18:03:20.613Z,17.73
2019-06-07T18:04:20.599Z,17.76
2019-06-07T18:05:20.704Z,17.69
2019-06-07T18:06:20.577Z,17.66
2019-06-07T18:07:20.565Z,17.69
2019-06-07T18:08:20.632Z,17.69
2019-06-07T18:09:20.545Z,17.67
2019-06-07T18:10:20.593Z,17.69
2019-06-07T18:11:20.542Z,17.71
2019-06-07T18:12:20.532Z,17.62
2019-06-07T18:13:20.506Z,17.67
2019-06-07T18:14:20.549Z,17.57
2019-06-07T18:15:20.522Z,17.57
2019-06-07T18:16:20.503Z,17.62
2019-06-07T18:17:33.736Z,17.55
2019-06-07T18:18:21.477Z,17.51
2019-06-07T18:19:20.440Z,17.57
2019-06-07T18:20:20.438Z,17.55
2019-06-07T18:21:20.499Z,17.50
2019-06-07T18:22:20.427Z,17.63
2019-06-07T18:23:20.393Z,17.53
2019-06-07T18:24:20.394Z,17.59
2019-06-07T18:25:20.373Z,17.62
2019-06-07T18:26:20.439Z,17.62
2019-06-07T18:27:20.351Z,17.67
2019-06-07T18:28:20.437Z,17.62
2019-06-07T18:29:20.359Z,17.67
